createdAt,value
2022-09-21T00:02:08.590Z,9.50
2022-09-21T00:06:14.661Z,8.30
2022-09-21T00:10:20.114Z,13.25
2022-09-21T00:14:22.934Z,11.85
2022-09-21T00:18:26.181Z,6.85
2022-09-21T00:22:30.409Z,4.75
2022-09-21T00:26:33.376Z,4.75
2022-09-21T00:30:36.185Z,9.93
2022-09-21T00:34:39.034Z,5.15
2022-09-21T00:38:43.829Z,6.53
2022-09-21T00:42:46.634Z,3.75
2022-09-21T00:46:51.796Z,3.95
2022-09-21T00:50:58.877Z,9.52
2022-09-21T00:55:07.161Z,8.23
2022-09-21T00:59:10.946Z,5.38
2022-09-21T01:03:14.542Z,7.75
2022-09-21T01:07:21.030Z,5.65
2022-09-21T01:11:35.265Z,6.82
2022-09-21T01:15:46.727Z,7.78
2022-09-21T01:20:32.463Z,4.88
2022-09-21T01:24:49.812Z,5.75
2022-09-21T01:29:13.603Z,6.70
2022-09-21T01:33:22.820Z,5.45
2022-09-21T01:37:30.424Z,3.75
2022-09-21T01:41:36.068Z,5.93
2022-09-21T01:45:44.598Z,9.55
2022-09-21T01:49:50.864Z,8.95
2022-09-21T01:53:57.528Z,4.45
2022-09-21T01:58:06.406Z,4.38
2022-09-21T02:02:16.623Z,9.27
2022-09-21T02:06:20.251Z,5.32
2022-09-21T02:10:28.652Z,3.42
2022-09-21T02:14:33.552Z,6.80
2022-09-21T02:18:46.829Z,6.55
2022-09-21T02:23:00.933Z,4.93
2022-09-21T02:27:06.916Z,4.40
2022-09-21T02:31:17.859Z,3.38
2022-09-21T02:35:32.252Z,3.00
2022-09-21T02:39:39.091Z,5.40
2022-09-21T02:43:45.794Z,5.85
2022-09-21T02:47:53.239Z,4.07
2022-09-21T02:52:01.437Z,6.90
2022-09-21T02:56:07.532Z,5.60
2022-09-21T03:00:12.154Z,3.03
2022-09-21T03:04:14.889Z,5.57
2022-09-21T03:08:19.826Z,6.65
2022-09-21T03:12:22.628Z,3.80
2022-09-21T03:16:25.533Z,7.18
2022-09-21T03:20:28.368Z,5.18
2022-09-21T03:24:47.785Z,3.33
2022-09-21T03:28:51.076Z,4.63
2022-09-21T03:32:54.818Z,7.43
2022-09-21T03:36:57.501Z,3.97
2022-09-21T03:41:01.640Z,4.45
2022-09-21T03:45:04.771Z,5.68
2022-09-21T03:49:07.593Z,10.60
2022-09-21T03:53:11.246Z,5.40
2022-09-21T03:57:15.470Z,9.55
2022-09-21T04:01:18.206Z,7.63
2022-09-21T04:05:21.308Z,15.73
2022-09-21T04:09:24.136Z,8.02
2022-09-21T04:13:28.300Z,10.70
2022-09-21T04:17:31.685Z,9.82
2022-09-21T04:21:34.520Z,7.28
2022-09-21T04:25:37.269Z,4.68
2022-09-21T04:29:41.941Z,4.85
2022-09-21T04:33:44.848Z,5.65
2022-09-21T04:37:47.677Z,10.25
2022-09-21T04:41:50.356Z,4.13
2022-09-21T04:45:54.530Z,10.00
2022-09-21T04:49:57.485Z,4.38
2022-09-21T04:54:00.234Z,5.13
2022-09-21T04:58:03.067Z,5.95
2022-09-21T05:02:07.120Z,12.45
2022-09-21T05:06:13.543Z,7.40
2022-09-21T05:10:16.642Z,6.97
2022-09-21T05:14:19.506Z,9.02
2022-09-21T05:18:23.680Z,7.72
2022-09-21T05:22:26.557Z,7.57
2022-09-21T05:26:29.262Z,10.57
2022-09-21T05:30:32.767Z,7.85
2022-09-21T05:34:47.107Z,7.90
2022-09-21T05:38:50.420Z,7.18
2022-09-21T05:42:53.761Z,9.15
2022-09-21T05:47:02.761Z,15.35
2022-09-21T05:51:13.798Z,9.95
2022-09-21T05:55:28.450Z,18.33
2022-09-21T05:59:42.901Z,11.68
2022-09-21T06:03:48.663Z,13.98
2022-09-21T06:07:52.662Z,35.38
2022-09-21T06:11:55.377Z,42.50
2022-09-21T06:15:58.583Z,39.00
2022-09-21T06:20:01.287Z,37.17
2022-09-21T06:24:06.053Z,35.83
2022-09-21T06:28:12.054Z,37.53
2022-09-21T06:32:14.747Z,32.22
2022-09-21T06:36:18.004Z,30.80
2022-09-21T06:40:22.575Z,28.02
2022-09-21T06:44:25.751Z,33.40
2022-09-21T06:48:29.457Z,41.08
2022-09-21T06:52:33.251Z,38.00
2022-09-21T06:56:37.523Z,37.13
2022-09-21T07:00:40.353Z,38.97
2022-09-21T07:04:43.242Z,47.53
2022-09-21T07:13:10.480Z,39.50
2022-09-21T07:17:16.010Z,33.03
2022-09-21T07:21:18.923Z,32.38
2022-09-21T07:25:21.609Z,40.58
2022-09-21T07:29:26.062Z,43.40
2022-09-21T07:33:32.689Z,40.90
2022-09-21T07:37:38.070Z,40.78
2022-09-21T07:41:40.787Z,57.67
2022-09-21T07:45:44.865Z,51.92
2022-09-21T07:49:48.105Z,47.83
2022-09-21T07:53:56.867Z,28.02
2022-09-21T07:58:17.304Z,21.33
2022-09-21T08:02:21.602Z,17.42
2022-09-21T08:06:25.545Z,14.35
2022-09-21T08:10:28.917Z,10.40
2022-09-21T08:14:32.024Z,10.73
2022-09-21T08:18:40.098Z,12.70
2022-09-21T08:22:42.961Z,12.38
2022-09-21T08:26:46.306Z,19.23
2022-09-21T08:30:49.106Z,16.73
2022-09-21T08:34:53.160Z,22.65
2022-09-21T08:38:57.068Z,16.25
2022-09-21T08:43:04.882Z,28.38
2022-09-21T08:47:13.373Z,14.30
2022-09-21T08:51:23.999Z,12.63
2022-09-21T08:55:26.898Z,10.50
2022-09-21T08:59:29.833Z,12.15
2022-09-21T09:04:00.562Z,12.65
2022-09-21T09:08:33.136Z,8.82
2022-09-21T09:12:49.740Z,10.98
2022-09-21T09:17:11.051Z,12.13
2022-09-21T09:21:29.383Z,10.57
2022-09-21T09:25:38.881Z,9.95
2022-09-21T09:29:46.998Z,7.78
2022-09-21T09:33:56.485Z,11.18
2022-09-21T09:38:06.165Z,15.20
2022-09-21T09:42:25.617Z,11.35
2022-09-21T09:46:34.885Z,10.07
2022-09-21T09:50:40.974Z,9.70
2022-09-21T09:54:44.637Z,8.43
2022-09-21T09:58:51.556Z,8.52
2022-09-21T10:02:55.994Z,10.02
2022-09-21T10:06:58.746Z,4.78
2022-09-21T10:11:01.702Z,9.60
2022-09-21T10:15:12.851Z,5.10
2022-09-21T10:19:18.705Z,7.57
2022-09-21T10:23:21.572Z,6.07
2022-09-21T10:27:28.579Z,7.38
2022-09-21T10:31:33.158Z,5.93
2022-09-21T10:35:50.756Z,4.50
2022-09-21T10:39:53.641Z,13.40
2022-09-21T10:43:56.397Z,10.57
2022-09-21T10:48:09.757Z,4.75
2022-09-21T10:52:12.659Z,4.45
2022-09-21T10:56:19.136Z,5.05
2022-09-21T11:00:35.680Z,6.22
2022-09-21T11:04:47.160Z,5.05
2022-09-21T11:08:56.514Z,4.30
2022-09-21T11:13:19.022Z,4.38
2022-09-21T11:17:34.285Z,8.23
2022-09-21T11:21:45.171Z,8.52
2022-09-21T11:25:54.913Z,2.95
2022-09-21T11:30:03.161Z,1.90
2022-09-21T11:34:26.155Z,7.05
2022-09-21T11:45:01.823Z,4.70
2022-09-21T11:49:27.808Z,4.03
2022-09-21T11:53:46.855Z,2.90
2022-09-21T11:57:55.361Z,2.60
2022-09-21T12:02:21.490Z,2.53
2022-09-21T12:06:42.081Z,5.93
2022-09-21T12:10:56.182Z,3.40
2022-09-21T12:15:08.230Z,2.60
2022-09-21T16:51:24.857Z,3.75
2022-09-21T16:55:29.336Z,2.22
2022-09-21T17:06:02.654Z,1.75
2022-09-21T17:10:13.988Z,4.20
2022-09-21T17:14:17.009Z,4.28
2022-09-21T17:18:19.691Z,3.55
2022-09-21T17:22:23.364Z,2.55
2022-09-21T17:26:28.273Z,3.53
2022-09-21T17:30:32.131Z,5.55
2022-09-21T17:34:35.291Z,4.28
2022-09-21T17:38:38.211Z,2.97
2022-09-21T17:42:46.607Z,1.92
2022-09-21T17:46:59.079Z,2.17
2022-09-21T17:51:02.450Z,2.45
2022-09-21T17:55:08.642Z,5.82
2022-09-21T17:59:26.383Z,3.47
2022-09-21T18:03:31.051Z,1.65
2022-09-21T18:07:34.872Z,4.63
2022-09-21T18:12:02.698Z,1.92
2022-09-21T18:16:19.974Z,4.22
2022-09-21T18:20:32.420Z,3.47
2022-09-21T18:24:35.766Z,5.43
2022-09-21T18:28:42.341Z,2.85
2022-09-21T18:33:52.916Z,4.72
2022-09-21T18:38:13.110Z,2.10
2022-09-21T18:42:40.401Z,4.32
2022-09-21T18:46:56.996Z,1.20
2022-09-21T18:51:09.782Z,4.72
2022-09-21T18:55:26.718Z,5.57
2022-09-21T18:59:32.001Z,5.22
2022-09-21T19:03:38.026Z,3.53
2022-09-21T19:07:48.678Z,2.55
2022-09-21T19:12:00.526Z,4.25
2022-09-21T19:16:12.631Z,4.18
2022-09-21T19:20:32.372Z,1.85
2022-09-21T19:24:42.771Z,2.53
2022-09-21T19:29:04.522Z,7.60
2022-09-21T19:33:45.886Z,6.20
2022-09-21T19:37:49.658Z,12.13
2022-09-21T19:42:04.520Z,1.88
2022-09-21T19:46:20.149Z,3.85
2022-09-21T19:50:27.652Z,8.95
2022-09-21T19:54:48.628Z,2.53
2022-09-21T19:59:09.723Z,6.65
2022-09-21T20:03:19.528Z,5.63
2022-09-21T20:07:31.400Z,3.03
2022-09-21T20:11:45.903Z,4.45
2022-09-21T20:15:52.820Z,11.43
2022-09-21T20:20:08.669Z,6.07
2022-09-21T20:24:21.230Z,3.20
2022-09-21T20:28:25.124Z,2.50
2022-09-21T20:32:27.981Z,10.00
2022-09-21T20:36:32.865Z,5.38
2022-09-21T20:40:36.198Z,9.68
2022-09-21T20:44:39.049Z,6.10
2022-09-21T20:48:42.090Z,10.88
2022-09-21T20:52:46.654Z,4.72
2022-09-21T20:56:50.175Z,5.60
2022-09-21T21:00:58.561Z,8.70
2022-09-21T21:05:01.742Z,10.48
2022-09-21T21:09:05.997Z,4.63
2022-09-21T21:13:08.833Z,4.60
2022-09-21T21:17:12.022Z,9.75
2022-09-21T21:21:15.081Z,8.05
2022-09-21T21:25:19.547Z,13.35
2022-09-21T21:29:22.768Z,10.90
2022-09-21T21:33:25.570Z,10.82
2022-09-21T21:37:30.990Z,13.63
2022-09-21T21:41:35.188Z,9.40
2022-09-21T21:45:38.372Z,14.13
2022-09-21T21:49:41.346Z,7.82
2022-09-21T21:53:44.697Z,6.88
2022-09-21T21:57:48.878Z,6.82
2022-09-21T22:01:53.233Z,15.50
2022-09-21T22:05:56.948Z,11.85
2022-09-21T22:09:59.697Z,9.85
2022-09-21T22:14:05.357Z,9.02
2022-09-21T22:18:08.151Z,7.82
2022-09-21T22:22:10.933Z,4.63
2022-09-21T22:26:16.135Z,11.13
2022-09-21T22:30:20.287Z,8.57
2022-09-21T22:34:23.098Z,7.95
2022-09-21T22:38:29.798Z,6.50
2022-09-21T22:42:33.212Z,5.38
2022-09-21T22:46:38.182Z,4.43
2022-09-21T22:50:41.128Z,9.38
2022-09-21T22:54:44.051Z,10.27
2022-09-21T22:58:48.791Z,10.48
2022-09-21T23:02:56.043Z,4.70
2022-09-21T23:06:58.800Z,19.50
2022-09-21T23:11:10.768Z,7.20
2022-09-21T23:15:14.645Z,11.38
2022-09-21T23:19:18.832Z,4.35
2022-09-21T23:23:22.059Z,8.20
2022-09-21T23:27:25.124Z,8.20
2022-09-21T23:31:28.840Z,6.90
2022-09-21T23:35:33.074Z,8.20
2022-09-21T23:39:35.874Z,7.55
2022-09-21T23:43:39.866Z,8.43
2022-09-21T23:47:42.776Z,8.60
2022-09-21T23:51:47.413Z,11.75
2022-09-21T23:55:50.235Z,12.40
2022-09-21T23:59:53.079Z,4.75
